createdAt,value
2024-03-02T00:00:57.451Z,99350.19
2024-03-02T00:03:26.126Z,99349.69
2024-03-02T00:05:54.463Z,99341.84
2024-03-02T00:08:27.676Z,99346.44
2024-03-02T00:11:01.128Z,99345.09
2024-03-02T00:13:29.461Z,99348.84
2024-03-02T00:15:58.869Z,99348.31
2024-03-02T00:18:35.860Z,99346.16
2024-03-02T00:21:04.688Z,99357.44
2024-03-02T00:23:33.240Z,99344.28
2024-03-02T00:26:01.994Z,99344.78
2024-03-02T00:28:39.741Z,99344.50
2024-03-02T00:31:14.236Z,99343.94
2024-03-02T00:33:51.115Z,99346.63
2024-03-02T00:36:27.173Z,99336.41
2024-03-02T00:38:57.686Z,99340.69
2024-03-02T00:41:27.512Z,99329.13
2024-03-02T00:44:07.390Z,99330.44
2024-03-02T00:46:42.740Z,99329.91
2024-03-02T00:49:23.294Z,99328.03
2024-03-02T00:51:54.087Z,99322.94
2024-03-02T00:54:25.835Z,99320.25
2024-03-02T00:56:56.604Z,99326.69
2024-03-02T00:59:25.634Z,99333.69
2024-03-02T01:01:55.198Z,99320.53
2024-03-02T01:04:23.690Z,99326.13
2024-03-02T01:06:51.566Z,99327.22
2024-03-02T01:09:20.993Z,99325.91
2024-03-02T01:11:49.368Z,99324.28
2024-03-02T01:14:17.582Z,99325.06
2024-03-02T01:16:45.896Z,99322.09
2024-03-02T01:19:14.213Z,99312.66
2024-03-02T01:21:42.537Z,99315.09
2024-03-02T01:24:10.790Z,99313.47
2024-03-02T01:26:39.068Z,99329.31
2024-03-02T01:29:07.285Z,99320.19
2024-03-02T01:31:35.586Z,99321.81
2024-03-02T01:34:04.124Z,99320.19
2024-03-02T01:36:32.517Z,99326.63
2024-03-02T01:39:00.789Z,99326.09
2024-03-02T01:41:28.985Z,99322.09
2024-03-02T01:43:57.262Z,99329.09
2024-03-02T01:46:25.775Z,99319.41
2024-03-02T01:48:54.319Z,99330.16
2024-03-02T01:51:22.818Z,99325.59
2024-03-02T01:53:51.064Z,99328.56
2024-03-02T01:56:19.372Z,99320.22
2024-03-02T01:58:47.605Z,99311.09
2024-03-02T02:01:16.011Z,99320.75
2024-03-02T02:03:44.318Z,99318.59
2024-03-02T02:06:12.863Z,99322.09
2024-03-02T02:08:41.097Z,99321.03
2024-03-02T02:11:09.456Z,99326.69
2024-03-02T02:13:37.779Z,99324.56
2024-03-02T02:16:09.559Z,99322.94
2024-03-02T02:18:37.998Z,99323.22
2024-03-02T02:21:05.969Z,99317.03
2024-03-02T02:23:34.180Z,99323.50
2024-03-02T02:26:03.897Z,99314.66
2024-03-02T02:28:34.789Z,99316.50
2024-03-02T02:31:04.142Z,99313.81
2024-03-02T02:33:32.522Z,99315.16
2024-03-02T02:36:00.750Z,99317.03
2024-03-02T02:38:28.956Z,99315.66
2024-03-02T02:40:57.181Z,99318.63
2024-03-02T02:43:25.367Z,99318.63
2024-03-02T02:45:53.846Z,99321.31
2024-03-02T02:48:22.233Z,99314.88
2024-03-02T02:50:51.548Z,99315.41
2024-03-02T02:53:20.304Z,99313.81
2024-03-02T02:55:48.562Z,99312.72
2024-03-02T02:58:16.876Z,99316.25
2024-03-02T03:00:45.229Z,99315.41
2024-03-02T03:03:13.500Z,99307.63
2024-03-02T03:05:41.706Z,99307.84
2024-03-02T03:08:09.928Z,99307.84
2024-03-02T03:10:38.198Z,99300.88
2024-03-02T03:13:09.244Z,99308.41
2024-03-02T03:15:38.421Z,99308.41
2024-03-02T03:18:07.386Z,99303.03
2024-03-02T03:20:35.865Z,99308.41
2024-03-02T03:23:05.022Z,99307.88
2024-03-02T03:25:33.558Z,99305.44
2024-03-02T03:28:04.198Z,99313.25
2024-03-02T03:30:32.532Z,99318.06
2024-03-02T03:33:00.837Z,99317.56
2024-03-02T03:35:29.063Z,99325.91
2024-03-02T03:37:57.242Z,99321.88
2024-03-02T03:40:25.160Z,99327.00
2024-03-02T03:42:53.380Z,99323.22
2024-03-02T03:45:24.545Z,99331.53
2024-03-02T03:47:52.820Z,99327.78
2024-03-02T03:50:21.050Z,99329.94
2024-03-02T03:52:49.283Z,99333.47
2024-03-02T03:55:17.509Z,99340.19
2024-03-02T03:57:45.557Z,99338.00
2024-03-02T04:00:14.342Z,99342.31
2024-03-02T04:02:42.776Z,99343.94
2024-03-02T04:05:12.051Z,99335.31
2024-03-02T04:07:41.826Z,99337.50
2024-03-02T04:10:13.865Z,99335.88
2024-03-02T04:12:42.378Z,99339.63
2024-03-02T04:15:10.721Z,99340.69
2024-03-02T04:17:39.040Z,99342.59
2024-03-02T04:20:07.700Z,99349.28
2024-03-02T04:22:36.733Z,99342.28
2024-03-02T04:25:05.848Z,99343.38
2024-03-02T04:27:34.620Z,99343.84
2024-03-02T04:30:03.255Z,99351.41
2024-03-02T04:32:31.540Z,99357.59
2024-03-02T04:35:00.069Z,99355.97
2024-03-02T04:37:28.374Z,99365.06
2024-03-02T04:39:56.591Z,99370.72
2024-03-02T04:42:25.877Z,99362.63
2024-03-02T04:44:54.023Z,99365.25
2024-03-02T04:47:22.343Z,99365.78
2024-03-02T04:49:50.592Z,99377.34
2024-03-02T04:52:19.294Z,99376.53
2024-03-02T04:55:05.182Z,99370.63
2024-03-02T04:57:33.476Z,99370.63
2024-03-02T05:00:02.020Z,99366.34
2024-03-02T05:02:30.224Z,99370.91
2024-03-02T05:04:58.412Z,99372.78
2024-03-02T05:07:26.617Z,99365.25
2024-03-02T05:09:54.862Z,99369.75
2024-03-02T05:12:48.392Z,99360.34
2024-03-02T05:15:17.289Z,99363.28
2024-03-02T05:17:45.866Z,99366.25
2024-03-02T05:20:14.290Z,99378.09
2024-03-02T05:22:42.614Z,99379.72
2024-03-02T05:25:10.869Z,99391.25
2024-03-02T05:27:39.280Z,99382.94
2024-03-02T05:30:08.578Z,99380.25
2024-03-02T05:32:36.955Z,99381.34
2024-03-02T05:35:06.155Z,99384.25
2024-03-02T05:37:34.971Z,99386.63
2024-03-02T05:40:03.809Z,99386.94
2024-03-02T05:42:32.130Z,99387.19
2024-03-02T05:45:00.560Z,99392.31
2024-03-02T05:47:29.003Z,99392.09
2024-03-02T05:49:57.295Z,99395.31
2024-03-02T05:52:25.518Z,99402.88
2024-03-02T05:54:53.846Z,99400.72
2024-03-02T05:57:35.068Z,99409.09
2024-03-02T06:00:05.691Z,99413.13
2024-03-02T06:02:35.697Z,99406.13
2024-03-02T06:05:04.993Z,99407.22
2024-03-02T06:07:33.264Z,99410.50
2024-03-02T06:10:01.836Z,99420.44
2024-03-02T06:12:30.174Z,99425.56
2024-03-02T06:14:58.449Z,99418.63
2024-03-02T06:17:26.697Z,99422.91
2024-03-02T06:19:54.956Z,99429.13
2024-03-02T06:22:24.055Z,99434.75
2024-03-02T06:24:52.637Z,99430.22
2024-03-02T06:27:21.640Z,99432.63
2024-03-02T06:29:49.945Z,99428.38
2024-03-02T06:32:18.180Z,99428.38
2024-03-02T06:34:46.393Z,99432.41
2024-03-02T06:37:14.667Z,99436.47
2024-03-02T06:39:42.931Z,99438.09
2024-03-02T06:42:11.156Z,99428.97
2024-03-02T06:44:39.359Z,99428.44
2024-03-02T06:47:07.745Z,99427.09
2024-03-02T06:49:36.458Z,99423.09
2024-03-02T06:52:04.389Z,99425.25
2024-03-02T06:54:32.780Z,99431.19
2024-03-02T06:57:11.079Z,99429.59
2024-03-02T06:59:39.367Z,99430.41
2024-03-02T07:02:07.861Z,99430.97
2024-03-02T07:04:36.145Z,99424.78
2024-03-02T07:07:04.491Z,99431.25
2024-03-02T07:09:32.899Z,99431.56
2024-03-02T07:12:01.692Z,99426.22
2024-03-02T07:14:56.562Z,99423.81
2024-03-02T07:17:24.516Z,99420.31
2024-03-02T07:19:52.815Z,99420.63
2024-03-02T07:22:21.061Z,99428.72
2024-03-02T07:24:49.592Z,99433.56
2024-03-02T07:27:18.561Z,99440.84
2024-03-02T07:29:46.848Z,99443.00
2024-03-02T07:32:15.024Z,99434.69
2024-03-02T07:34:43.244Z,99444.66
2024-03-02T07:37:11.644Z,99444.94
2024-03-02T07:39:40.232Z,99451.69
2024-03-02T07:42:08.501Z,99449.78
2024-03-02T07:44:37.113Z,99460.03
2024-03-02T07:47:06.102Z,99453.31
2024-03-02T07:49:34.335Z,99455.22
2024-03-02T07:52:02.718Z,99458.72
2024-03-02T07:54:31.139Z,99460.34
2024-03-02T07:56:59.852Z,99468.72
2024-03-02T07:59:28.068Z,99463.31
2024-03-02T08:01:57.286Z,99468.19
2024-03-02T08:04:25.771Z,99480.63
2024-03-02T08:06:55.564Z,99473.06
2024-03-02T08:09:23.921Z,99475.22
2024-03-02T08:11:52.151Z,99477.41
2024-03-02T08:14:20.524Z,99474.72
2024-03-02T08:16:48.781Z,99475.00
2024-03-02T08:19:17.150Z,99482.31
2024-03-02T08:21:46.090Z,99482.31
2024-03-02T08:24:14.373Z,99473.69
2024-03-02T08:26:44.773Z,99471.56
2024-03-02T08:29:13.903Z,99469.38
2024-03-02T08:31:42.534Z,99475.84
2024-03-02T08:34:11.369Z,99472.88
2024-03-02T08:36:40.142Z,99478.56
2024-03-02T08:39:16.256Z,99481.81
2024-03-02T08:41:48.425Z,99485.56
2024-03-02T08:44:16.924Z,99482.63
2024-03-02T08:46:45.523Z,99487.72
2024-03-02T08:49:14.139Z,99495.81
2024-03-02T08:51:42.442Z,99485.56
2024-03-02T08:54:10.932Z,99497.44
2024-03-02T08:56:39.235Z,99498.25
2024-03-02T08:59:07.457Z,99495.81
2024-03-02T09:01:35.908Z,99502.03
2024-03-02T09:04:04.248Z,99499.03
2024-03-02T09:06:32.498Z,99499.31
2024-03-02T09:09:00.761Z,99501.19
2024-03-02T09:11:29.179Z,99502.78
2024-03-02T09:13:58.897Z,99508.16
2024-03-02T09:16:31.805Z,99504.91
2024-03-02T09:19:01.392Z,99496.22
2024-03-02T09:21:31.115Z,99499.47
2024-03-02T09:23:59.510Z,99506.41
2024-03-02T09:26:27.721Z,99508.75
2024-03-02T09:28:55.960Z,99503.84
2024-03-02T09:31:24.179Z,99513.28
2024-03-02T09:33:52.456Z,99514.38
2024-03-02T09:36:22.203Z,99522.22
2024-03-02T09:38:50.610Z,99516.53
2024-03-02T09:41:19.143Z,99513.53
2024-03-02T09:43:47.451Z,99515.94
2024-03-02T09:46:15.813Z,99516.81
2024-03-02T09:48:44.057Z,99521.91
2024-03-02T09:51:14.078Z,99525.41
2024-03-02T09:53:42.641Z,99519.19
2024-03-02T09:56:10.881Z,99525.66
2024-03-02T09:58:40.316Z,99521.63
2024-03-02T10:01:08.848Z,99524.34
2024-03-02T10:03:37.460Z,99528.66
2024-03-02T10:06:32.159Z,99522.41
2024-03-02T10:09:00.393Z,99521.88
2024-03-02T10:11:38.721Z,99514.28
2024-03-02T10:14:14.882Z,99519.94
2024-03-02T10:16:47.949Z,99516.91
2024-03-02T10:19:25.216Z,99512.97
2024-03-02T10:21:55.638Z,99510.78
2024-03-02T10:24:25.294Z,99513.13
2024-03-02T10:26:54.182Z,99507.63
2024-03-02T10:29:30.859Z,99506.72
2024-03-02T10:32:02.630Z,99506.66
2024-03-02T10:34:30.879Z,99502.72
2024-03-02T10:37:02.938Z,99489.66
2024-03-02T10:39:32.511Z,99497.31
2024-03-02T10:42:01.315Z,99495.13
2024-03-02T10:44:29.774Z,99496.16
2024-03-02T10:46:58.424Z,99485.56
2024-03-02T10:49:29.023Z,99481.16
2024-03-02T10:51:57.315Z,99482.09
2024-03-02T10:54:27.979Z,99476.56
2024-03-02T10:56:58.273Z,99473.91
2024-03-02T10:59:31.752Z,99482.66
2024-03-02T11:02:05.520Z,99466.97
2024-03-02T11:04:35.989Z,99476.84
2024-03-02T11:07:10.896Z,99470.75
2024-03-02T11:10:09.564Z,99473.69
2024-03-02T11:13:07.011Z,99467.25
2024-03-02T11:15:38.819Z,99467.31
2024-03-02T11:18:11.978Z,99462.72
2024-03-02T11:20:43.982Z,99472.97
2024-03-02T11:23:12.482Z,99468.88
2024-03-02T11:25:41.046Z,99464.25
2024-03-02T11:28:10.774Z,99463.84
2024-03-02T11:30:40.988Z,99463.72
2024-03-02T11:33:11.047Z,99457.81
2024-03-02T11:35:44.801Z,99450.56
2024-03-02T11:38:20.217Z,99453.53
2024-03-02T11:40:48.452Z,99457.31
2024-03-02T11:43:16.989Z,99450.53
2024-03-02T11:45:51.052Z,99444.41
2024-03-02T11:48:19.252Z,99440.69
2024-03-02T11:50:52.955Z,99438.22
2024-03-02T11:53:25.391Z,99434.13
2024-03-02T11:56:01.783Z,99435.44
2024-03-02T11:58:31.992Z,99448.63
2024-03-02T12:01:00.308Z,99436.47
2024-03-02T12:03:29.037Z,99440.03
2024-03-02T12:05:58.120Z,99437.53
2024-03-02T12:08:26.399Z,99444.25
2024-03-02T12:11:17.263Z,99440.69
2024-03-02T12:14:03.073Z,99436.72
2024-03-02T12:16:31.355Z,99430.19
2024-03-02T12:18:59.739Z,99430.44
2024-03-02T12:21:32.970Z,99417.53
2024-03-02T12:24:03.664Z,99424.34
2024-03-02T12:26:32.299Z,99422.59
2024-03-02T12:29:00.714Z,99414.16
2024-03-02T12:31:28.897Z,99423.97
2024-03-02T12:33:57.716Z,99416.94
2024-03-02T12:36:26.232Z,99413.06
2024-03-02T12:38:58.119Z,99412.47
2024-03-02T12:41:32.860Z,99422.09
2024-03-02T12:44:01.482Z,99427.13
2024-03-02T12:46:30.219Z,99424.72
2024-03-02T12:48:58.658Z,99426.69
2024-03-02T12:51:27.350Z,99417.22
2024-03-02T12:53:57.335Z,99422.00
2024-03-02T12:56:28.875Z,99417.69
2024-03-02T12:58:57.589Z,99413.06
2024-03-02T13:01:25.902Z,99413.78
2024-03-02T13:03:56.232Z,99408.34
2024-03-02T13:06:35.802Z,99399.88
2024-03-02T13:09:04.925Z,99397.06
2024-03-02T13:11:33.225Z,99398.94
2024-03-02T13:14:02.930Z,99397.72
2024-03-02T13:16:33.265Z,99401.53
2024-03-02T13:19:13.831Z,99391.91
2024-03-02T13:21:42.133Z,99399.22
2024-03-02T13:24:10.382Z,99388.09
2024-03-02T13:26:38.831Z,99388.44
2024-03-02T13:29:07.068Z,99380.22
2024-03-02T13:31:35.302Z,99385.66
2024-03-02T13:34:03.700Z,99386.56
2024-03-02T13:36:32.010Z,99386.50
2024-03-02T13:39:00.991Z,99387.13
2024-03-02T13:41:29.196Z,99382.59
2024-03-02T13:43:57.440Z,99380.19
2024-03-02T13:46:25.754Z,99381.31
2024-03-02T13:48:54.086Z,99385.03
2024-03-02T13:51:22.318Z,99383.94
2024-03-02T13:53:50.787Z,99378.63
2024-03-02T13:56:18.979Z,99390.16
2024-03-02T13:58:47.217Z,99379.31
2024-03-02T14:01:15.914Z,99368.75
2024-03-02T14:03:44.228Z,99387.56
2024-03-02T14:06:12.557Z,99379.31
2024-03-02T14:08:40.753Z,99376.69
2024-03-02T14:11:10.270Z,99381.72
2024-03-02T14:13:38.549Z,99378.91
2024-03-02T14:16:07.246Z,99376.91
2024-03-02T14:18:35.632Z,99366.63
2024-03-02T14:21:04.953Z,99379.53
2024-03-02T14:23:33.179Z,99369.84
2024-03-02T14:26:01.568Z,99360.72
2024-03-02T14:28:47.337Z,99371.06
2024-03-02T14:31:18.659Z,99370.22
2024-03-02T14:33:46.992Z,99360.38
2024-03-02T14:36:15.578Z,99362.59
2024-03-02T14:38:43.839Z,99356.00
2024-03-02T14:41:12.192Z,99355.88
2024-03-02T14:43:40.424Z,99354.84
2024-03-02T14:46:10.446Z,99354.78
2024-03-02T14:48:39.268Z,99352.75
2024-03-02T14:51:07.662Z,99347.13
2024-03-02T14:53:36.585Z,99358.56
2024-03-02T14:56:05.378Z,99359.09
2024-03-02T14:58:33.640Z,99361.28
2024-03-02T15:01:01.949Z,99359.97
2024-03-02T15:03:30.312Z,99356.56
2024-03-02T15:05:58.603Z,99357.19
2024-03-02T15:08:26.866Z,99365.22
2024-03-02T15:10:56.933Z,99359.59
2024-03-02T15:13:25.975Z,99357.34
2024-03-02T15:15:54.405Z,99359.06
2024-03-02T15:18:22.681Z,99352.09
2024-03-02T15:20:51.011Z,99351.03
2024-03-02T15:23:18.841Z,99351.41
2024-03-02T15:25:47.715Z,99361.75
2024-03-02T15:28:15.993Z,99354.59
2024-03-02T15:30:45.998Z,99348.47
2024-03-02T15:33:14.280Z,99340.72
2024-03-02T15:35:42.520Z,99342.94
2024-03-02T15:38:21.972Z,99348.25
2024-03-02T15:40:56.969Z,99354.28
2024-03-02T15:43:25.570Z,99358.97
2024-03-02T15:45:53.835Z,99348.63
2024-03-02T15:48:22.108Z,99347.19
2024-03-02T15:50:51.256Z,99340.31
2024-03-02T15:53:19.454Z,99347.84
2024-03-02T15:55:47.996Z,99348.28
2024-03-02T15:58:16.227Z,99340.47
2024-03-02T16:00:44.587Z,99344.91
2024-03-02T16:03:13.089Z,99342.19
2024-03-02T16:05:43.962Z,99344.19
2024-03-02T16:08:12.365Z,99343.88
2024-03-02T16:10:40.641Z,99343.25
2024-03-02T16:13:08.969Z,99346.75
2024-03-02T16:15:37.579Z,99340.47
2024-03-02T16:18:06.106Z,99333.63
2024-03-02T16:20:34.830Z,99342.84
2024-03-02T16:23:03.144Z,99338.59
2024-03-02T16:25:32.131Z,99336.81
2024-03-02T16:28:02.513Z,99341.94
2024-03-02T16:30:30.824Z,99344.22
2024-03-02T16:32:59.744Z,99334.84
2024-03-02T16:35:28.220Z,99338.94
2024-03-02T16:37:56.473Z,99334.53
2024-03-02T16:40:24.709Z,99335.84
2024-03-02T16:42:53.363Z,99332.44
2024-03-02T16:45:21.622Z,99340.44
2024-03-02T16:47:50.415Z,99341.63
2024-03-02T16:50:18.691Z,99338.03
2024-03-02T16:52:47.205Z,99333.03
2024-03-02T16:55:15.836Z,99338.81
2024-03-02T16:57:44.239Z,99333.41
2024-03-02T17:00:12.972Z,99342.44
2024-03-02T17:02:41.455Z,99347.28
2024-03-02T17:05:09.965Z,99361.72
2024-03-02T17:07:38.231Z,99357.34
2024-03-02T17:10:07.245Z,99356.25
2024-03-02T17:12:35.620Z,99359.13
2024-03-02T17:15:05.458Z,99365.13
2024-03-02T17:17:33.937Z,99363.44
2024-03-02T17:20:02.652Z,99370.03
2024-03-02T17:22:32.526Z,99367.31
2024-03-02T17:25:00.999Z,99373.13
2024-03-02T17:27:31.769Z,99369.94
2024-03-02T17:30:00.539Z,99367.84
2024-03-02T17:32:29.410Z,99380.25
2024-03-02T17:35:00.266Z,99378.28
2024-03-02T17:37:28.981Z,99377.00
2024-03-02T17:39:57.264Z,99384.13
2024-03-02T17:42:26.955Z,99391.34
2024-03-02T17:44:55.211Z,99379.03
2024-03-02T17:47:23.461Z,99383.94
2024-03-02T17:49:51.729Z,99386.16
2024-03-02T17:52:20.052Z,99392.13
2024-03-02T17:54:48.311Z,99389.47
2024-03-02T17:57:16.641Z,99391.09
2024-03-02T17:59:45.756Z,99393.56
2024-03-02T18:02:14.057Z,99397.41
2024-03-02T18:04:43.184Z,99402.53
2024-03-02T18:07:11.551Z,99403.63
2024-03-02T18:09:39.854Z,99399.63
2024-03-02T18:12:08.505Z,99400.44
2024-03-02T18:14:40.307Z,99415.56
2024-03-02T18:17:08.870Z,99409.63
2024-03-02T18:19:36.794Z,99406.94
2024-03-02T18:22:05.093Z,99418.03
2024-03-02T18:24:37.471Z,99405.91
2024-03-02T18:27:06.167Z,99408.69
2024-03-02T18:29:34.516Z,99407.59
2024-03-02T18:32:04.480Z,99402.75
2024-03-02T18:34:33.583Z,99403.03
2024-03-02T18:37:03.394Z,99408.22
2024-03-02T18:39:31.744Z,99410.38
2024-03-02T18:42:00.301Z,99409.34
2024-03-02T18:44:28.637Z,99410.41
2024-03-02T18:46:56.844Z,99414.75
2024-03-02T18:49:27.847Z,99406.69
2024-03-02T18:51:56.394Z,99406.13
2024-03-02T18:54:24.650Z,99403.72
2024-03-02T18:56:53.202Z,99409.97
2024-03-02T18:59:21.559Z,99411.31
2024-03-02T19:01:50.318Z,99404.28
2024-03-02T19:04:19.642Z,99403.78
2024-03-02T19:06:47.888Z,99408.38
2024-03-02T19:09:16.411Z,99404.63
2024-03-02T19:11:44.674Z,99403.56
2024-03-02T19:14:12.892Z,99405.69
2024-03-02T19:16:41.453Z,99402.19
2024-03-02T19:19:09.693Z,99398.69
2024-03-02T19:21:38.130Z,99399.25
2024-03-02T19:24:06.469Z,99403.31
2024-03-02T19:26:34.729Z,99405.47
2024-03-02T19:29:02.900Z,99400.59
2024-03-02T19:31:31.149Z,99392.53
2024-03-02T19:33:59.510Z,99400.09
2024-03-02T19:36:29.058Z,99400.63
2024-03-02T19:38:57.403Z,99400.88
2024-03-02T19:41:25.716Z,99389.59
2024-03-02T19:43:54.184Z,99386.34
2024-03-02T19:46:23.838Z,99383.66
2024-03-02T19:48:52.141Z,99389.88
2024-03-02T19:51:20.460Z,99386.63
2024-03-02T19:53:48.665Z,99385.84
2024-03-02T19:56:21.255Z,99384.50
2024-03-02T19:58:49.460Z,99384.78
2024-03-02T20:01:20.673Z,99378.03
2024-03-02T20:03:51.107Z,99367.53
2024-03-02T20:06:22.181Z,99364.28
2024-03-02T20:08:50.850Z,99362.94
2024-03-02T20:11:19.248Z,99368.34
2024-03-02T20:13:47.480Z,99370.75
2024-03-02T20:16:21.554Z,99363.72
2024-03-02T20:18:50.800Z,99362.13
2024-03-02T20:21:19.105Z,99366.97
2024-03-02T20:23:47.336Z,99347.31
2024-03-02T20:26:16.969Z,99354.56
2024-03-02T20:28:46.269Z,99362.94
2024-03-02T20:31:16.165Z,99353.50
2024-03-02T20:33:44.522Z,99357.28
2024-03-02T20:36:16.621Z,99355.66
2024-03-02T20:38:45.136Z,99355.94
2024-03-02T20:41:20.205Z,99346.50
2024-03-02T20:43:48.873Z,99339.47
2024-03-02T20:46:17.223Z,99340.03
2024-03-02T20:48:47.336Z,99332.75
2024-03-02T20:51:15.775Z,99330.59
2024-03-02T20:53:43.989Z,99337.91
2024-03-02T20:56:12.733Z,99333.84
2024-03-02T20:58:42.317Z,99330.09
2024-03-02T21:01:12.408Z,99331.16
2024-03-02T21:03:41.619Z,99324.16
2024-03-02T21:06:10.057Z,99325.47
2024-03-02T21:08:38.440Z,99318.50
2024-03-02T21:11:07.330Z,99320.34
2024-03-02T21:13:35.610Z,99314.69
2024-03-02T21:16:04.376Z,99323.59
2024-03-02T21:18:32.730Z,99322.25
2024-03-02T21:21:01.054Z,99327.13
2024-03-02T21:23:30.415Z,99318.22
2024-03-02T21:25:58.724Z,99314.16
2024-03-02T21:28:27.154Z,99314.97
2024-03-02T21:30:55.415Z,99319.81
2024-03-02T21:33:23.502Z,99318.75
2024-03-02T21:35:51.765Z,99324.66
2024-03-02T21:38:19.964Z,99321.16
2024-03-02T21:40:49.816Z,99322.25
2024-03-02T21:43:18.527Z,99322.53
2024-03-02T21:45:47.089Z,99323.31
2024-03-02T21:48:15.357Z,99330.31
2024-03-02T21:50:44.359Z,99321.16
2024-03-02T21:53:13.647Z,99326.28
2024-03-02T21:55:42.048Z,99320.63
2024-03-02T21:58:10.385Z,99316.03
2024-03-02T22:00:39.800Z,99312.56
2024-03-02T22:03:08.267Z,99318.72
2024-03-02T22:05:36.974Z,99306.63
2024-03-02T22:08:05.296Z,99306.88
2024-03-02T22:10:33.755Z,99303.13
2024-03-02T22:13:01.815Z,99297.72
2024-03-02T22:15:30.339Z,99290.72
2024-03-02T22:18:01.575Z,99289.94
2024-03-02T22:20:29.786Z,99296.38
2024-03-02T22:22:58.553Z,99291.00
2024-03-02T22:25:26.859Z,99294.22
2024-03-02T22:27:56.936Z,99291.53
2024-03-02T22:30:27.357Z,99274.31
2024-03-02T22:32:57.305Z,99282.63
2024-03-02T22:35:26.645Z,99275.41
2024-03-02T22:37:55.268Z,99269.47
2024-03-02T22:40:26.031Z,99278.09
2024-03-02T22:42:54.430Z,99275.91
2024-03-02T22:45:22.659Z,99277.50
2024-03-02T22:47:51.672Z,99278.59
2024-03-02T22:50:19.960Z,99275.09
2024-03-02T22:52:48.192Z,99270.00
2024-03-02T22:55:16.654Z,99271.59
2024-03-02T22:57:45.076Z,99270.50
2024-03-02T23:00:32.237Z,99273.16
2024-03-02T23:03:01.086Z,99282.84
2024-03-02T23:05:30.261Z,99279.06
2024-03-02T23:07:58.727Z,99278.22
2024-03-02T23:10:27.083Z,99276.88
2024-03-02T23:12:55.449Z,99281.72
2024-03-02T23:15:24.313Z,99280.91
2024-03-02T23:17:52.538Z,99277.97
2024-03-02T23:20:20.733Z,99276.06
2024-03-02T23:22:49.023Z,99283.03
2024-03-02T23:25:17.313Z,99280.66
2024-03-02T23:27:45.648Z,99273.09
2024-03-02T23:30:13.986Z,99272.59
2024-03-02T23:32:42.441Z,99271.47
2024-03-02T23:35:10.389Z,99272.56
2024-03-02T23:37:38.633Z,99280.34
2024-03-02T23:40:36.673Z,99276.34
2024-03-02T23:43:04.446Z,99271.72
2024-03-02T23:45:33.045Z,99269.03
2024-03-02T23:48:01.727Z,99262.81
2024-03-02T23:50:29.973Z,99268.22
2024-03-02T23:52:58.157Z,99257.44
2024-03-02T23:55:36.142Z,99257.47
2024-03-02T23:58:11.214Z,99255.88
